Chorrocho, Brazil
Current Conditions -  °F | °C
As of 11:00 AM on Friday 28 Nov 2014 (Local Time) from SBPL Reporting Station
Broken Clouds Broken Clouds  
Wind Chill: 90°   Ceiling: 3500
Heat Index: 95°   Visibility: 6mi
Dew Point: 70°   Wind: 9mph
Humidity: 52%   Direction: 100°E
Pressure: 29.97"   Gusts: NA
Location:  8.98°S, 39.1°W
Report Text: SBPL 281400Z 10008KT 9999 BKN035 32/21 Q1015
Loading
Personal Weather Stations






























Interactive Weather Map New forecast layout! Learn more

10-Day Weather Forecast

Advertisements
Track Severe Weather on mobile